Time;durP1;ratioP1;P1;durP2;ratioP2;P2;SDS_P1;SDS_P2;PMS_P1;PMS_P2;Temp;Humidity;BMP_temperature;BMP_pressure;BME280_temperature;BME280_humidity;BME280_pressure;Samples;Min_cycle;Max_cycle;Signal;HPM_P1;HPM_P2
2021/05/01 00:01:21;;;;;;;24.55;16.77;;;7.30;99.90;;;;;;5030757;28;20037;-78
2021/05/01 00:03:47;;;;;;;28.05;16.67;;;7.30;99.90;;;;;;5048151;28;20021;-77
2021/05/01 00:06:12;;;;;;;24.17;16.17;;;7.30;99.90;;;;;;5048029;28;20056;-77
2021/05/01 00:08:38;;;;;;;21.48;13.73;;;7.30;99.90;;;;;;5048076;28;20037;-77
2021/05/01 00:11:04;;;;;;;25.08;15.52;;;7.20;99.90;;;;;;5048092;28;20103;-77
2021/05/01 00:13:30;;;;;;;24.75;15.02;;;7.20;99.90;;;;;;5047835;28;20387;-76
2021/05/01 00:15:57;;;;;;;21.40;15.23;;;7.20;99.90;;;;;;5046859;28;20025;-77
2021/05/01 00:18:23;;;;;;;20.23;12.20;;;7.20;99.90;;;;;;5047709;28;20044;-77
2021/05/01 00:20:48;;;;;;;22.73;13.93;;;7.20;99.90;;;;;;5047819;28;20057;-77
2021/05/01 00:23:14;;;;;;;16.58;10.48;;;7.20;99.90;;;;;;5030164;28;20038;-77
2021/05/01 00:25:40;;;;;;;23.35;10.55;;;7.20;99.90;;;;;;5047657;28;20048;-77
2021/05/01 00:28:05;;;;;;;15.57;11.48;;;7.20;99.90;;;;;;5047596;28;20045;-77
2021/05/01 00:30:31;;;;;;;14.00;8.95;;;7.20;99.90;;;;;;5046382;28;20033;-77
2021/05/01 00:32:57;;;;;;;26.55;12.77;;;7.20;99.90;;;;;;5047721;28;20070;-77
2021/05/01 00:35:24;;;;;;;18.45;12.13;;;7.20;99.90;;;;;;5046236;28;20055;-77
2021/05/01 00:37:50;;;;;;;21.90;12.57;;;7.20;99.90;;;;;;5067379;28;20037;-77
2021/05/01 00:40:16;;;;;;;15.93;10.75;;;7.20;99.90;;;;;;5049595;28;20033;-77
2021/05/01 00:42:42;;;;;;;15.43;9.55;;;7.20;99.90;;;;;;5049452;28;20041;-77
2021/05/01 00:45:08;;;;;;;15.35;10.52;;;7.20;99.90;;;;;;5049494;28;20029;-77
2021/05/01 00:47:34;;;;;;;20.13;11.55;;;7.20;99.90;;;;;;5049192;28;20048;-77
2021/05/01 00:50:01;;;;;;;24.48;13.55;;;7.20;99.90;;;;;;5049132;28;20043;-77
2021/05/01 00:52:27;;;;;;;17.77;12.15;;;7.20;99.90;;;;;;5067461;28;20475;-78
2021/05/01 00:54:53;;;;;;;21.10;13.35;;;7.20;99.90;;;;;;5067219;28;20033;-77
2021/05/01 00:57:19;;;;;;;23.90;15.93;;;7.10;99.90;;;;;;5049130;28;20086;-77
2021/05/01 00:59:44;;;;;;;24.80;17.08;;;7.10;99.90;;;;;;5049241;28;20040;-77
2021/05/01 01:02:12;;;;;;;26.38;17.55;;;7.10;99.90;;;;;;5032740;28;20036;-77
2021/05/01 01:04:38;;;;;;;22.02;14.57;;;7.00;99.90;;;;;;5032449;28;20469;-78
2021/05/01 01:07:04;;;;;;;21.95;14.60;;;7.00;99.90;;;;;;5066776;28;20033;-77
2021/05/01 01:09:30;;;;;;;27.00;17.40;;;6.90;99.90;;;;;;5032703;28;20028;-77
2021/05/01 01:11:55;;;;;;;27.77;17.48;;;6.90;99.90;;;;;;5032541;28;20040;-77
2021/05/01 01:14:21;;;;;;;29.60;19.73;;;6.80;99.90;;;;;;5032388;28;20049;-77
2021/05/01 01:16:47;;;;;;;26.98;18.23;;;6.70;99.90;;;;;;5048995;28;20032;-77
2021/05/01 01:19:14;;;;;;;23.40;16.65;;;6.60;99.90;;;;;;5066776;28;20029;-77
2021/05/01 01:21:45;;;;;;;27.38;18.38;;;6.50;99.90;;;;;;5065668;28;20051;-77
2021/05/01 01:24:11;;;;;;;29.75;20.20;;;6.50;99.90;;;;;;5065670;28;20289;-77
2021/05/01 01:26:38;;;;;;;31.88;20.98;;;6.50;99.90;;;;;;5033304;28;20037;-77
2021/05/01 01:29:05;;;;;;;32.55;21.23;;;6.60;99.90;;;;;;5066699;28;20033;-77
2021/05/01 01:31:30;;;;;;;31.05;20.08;;;6.60;99.90;;;;;;5066526;28;20032;-77
2021/05/01 01:33:56;;;;;;;36.28;22.05;;;6.70;99.90;;;;;;5066491;28;20116;-77
2021/05/01 01:36:21;;;;;;;35.50;22.50;;;6.70;99.90;;;;;;5048314;28;20036;-77
2021/05/01 01:38:47;;;;;;;28.38;20.30;;;6.70;99.90;;;;;;5048829;28;20036;-77
2021/05/01 01:41:13;;;;;;;36.13;20.70;;;6.70;99.90;;;;;;5048629;28;20155;-77
2021/05/01 01:43:38;;;;;;;36.47;24.73;;;6.70;99.90;;;;;;5048448;28;20116;-77
2021/05/01 01:46:05;;;;;;;31.88;22.23;;;6.60;99.90;;;;;;5065413;28;20024;-77
2021/05/01 01:48:30;;;;;;;31.92;20.20;;;6.60;99.90;;;;;;5066233;28;20032;-77
2021/05/01 01:50:56;;;;;;;36.72;22.88;;;6.60;99.90;;;;;;5048200;28;20028;-77
2021/05/01 01:53:23;;;;;;;30.00;21.08;;;6.60;99.90;;;;;;5048496;28;20047;-77
2021/05/01 01:55:49;;;;;;;29.80;21.30;;;6.60;99.90;;;;;;5066216;28;20048;-77
2021/05/01 01:58:15;;;;;;;34.83;23.55;;;6.60;99.90;;;;;;5048490;28;20036;-77
2021/05/01 02:00:41;;;;;;;33.38;23.65;;;6.60;99.90;;;;;;5064864;28;20071;-77
2021/05/01 02:03:06;;;;;;;35.67;23.23;;;6.60;99.90;;;;;;5066067;28;20044;-77
2021/05/01 02:05:52;;;;;;;32.47;20.15;;;6.70;99.90;;;;;;5047898;28;20029;-77
2021/05/01 02:08:18;;;;;;;34.95;22.17;;;6.60;99.90;;;;;;4965368;29;20432;-77
2021/05/01 02:10:44;;;;;;;35.97;24.25;;;6.60;99.90;;;;;;4965530;29;20043;-77
2021/05/01 02:13:10;;;;;;;32.40;22.15;;;6.60;99.90;;;;;;4965095;29;20047;-77
2021/05/01 02:15:35;;;;;;;30.35;21.67;;;6.60;99.90;;;;;;4949236;29;20027;-76
2021/05/01 02:18:03;;;;;;;28.42;20.05;;;6.60;99.90;;;;;;4965188;29;20046;-77
2021/05/01 02:20:32;;;;;;;26.88;17.98;;;6.60;99.90;;;;;;4965072;29;20043;-77
2021/05/01 02:22:57;;;;;;;27.05;18.30;;;6.60;99.90;;;;;;4965408;29;20047;-77
2021/05/01 02:25:24;;;;;;;23.52;18.10;;;6.60;99.90;;;;;;4965240;29;20046;-77
2021/05/01 02:27:50;;;;;;;27.38;18.10;;;6.60;99.90;;;;;;4948883;29;20051;-77
2021/05/01 02:30:24;;;;;;;25.75;16.65;;;6.60;99.90;;;;;;4949116;29;20046;-77
2021/05/01 02:32:50;;;;;;;24.48;16.48;;;6.60;99.90;;;;;;4948987;29;20083;-77
2021/05/01 02:35:18;;;;;;;20.35;16.25;;;6.50;99.90;;;;;;4952684;29;20035;-77
2021/05/01 02:37:45;;;;;;;27.08;15.88;;;6.50;99.90;;;;;;4964820;29;20031;-77
2021/05/01 02:40:12;;;;;;;22.42;14.48;;;6.50;99.90;;;;;;4949150;29;20045;-77
2021/05/01 02:42:39;;;;;;;24.50;14.32;;;6.50;99.90;;;;;;4964999;29;20047;-77
2021/05/01 02:45:09;;;;;;;24.00;16.40;;;6.40;99.90;;;;;;5011137;28;20045;-77
2021/05/01 02:47:36;;;;;;;20.55;14.25;;;6.50;99.90;;;;;;5045301;28;20101;-77
2021/05/01 02:50:05;;;;;;;20.63;13.45;;;6.40;99.90;;;;;;5027726;28;20036;-77
2021/05/01 02:52:31;;;;;;;19.63;11.60;;;6.40;99.90;;;;;;5027643;28;20037;-77
2021/05/01 02:54:57;;;;;;;20.17;11.82;;;6.40;99.90;;;;;;5044324;28;20025;-77
2021/05/01 02:57:22;;;;;;;14.85;9.48;;;6.30;99.90;;;;;;5029087;28;20038;-78
2021/05/01 02:59:48;;;;;;;17.75;11.05;;;6.20;99.90;;;;;;5048253;28;20079;-77
2021/05/01 03:02:14;;;;;;;14.82;10.52;;;6.20;99.90;;;;;;5048334;28;20056;-77
2021/05/01 03:04:40;;;;;;;15.15;11.10;;;6.10;99.90;;;;;;5049519;28;20037;-77
2021/05/01 03:07:05;;;;;;;19.23;12.65;;;6.00;99.90;;;;;;5048728;28;20029;-77
2021/05/01 03:09:31;;;;;;;20.83;12.10;;;6.00;99.90;;;;;;5049191;28;20481;-77
2021/05/01 03:11:57;;;;;;;15.20;10.52;;;6.00;99.90;;;;;;5047898;28;20025;-77
2021/05/01 03:14:25;;;;;;;15.88;10.05;;;6.00;99.90;;;;;;5048960;28;20053;-77
2021/05/01 03:16:52;;;;;;;13.02;9.30;;;5.90;99.90;;;;;;5031094;28;20044;-77
2021/05/01 03:19:18;;;;;;;12.77;8.30;;;5.80;99.90;;;;;;5049192;28;20044;-77
2021/05/01 03:21:43;;;;;;;21.02;12.02;;;5.80;99.90;;;;;;5047701;28;20072;-77
2021/05/01 03:24:10;;;;;;;16.80;10.52;;;5.80;99.90;;;;;;5047703;28;20029;-77
2021/05/01 03:26:36;;;;;;;23.98;12.70;;;5.70;99.90;;;;;;5047279;28;20037;-77
2021/05/01 03:29:01;;;;;;;16.65;11.45;;;5.70;99.90;;;;;;5048993;28;20048;-77
2021/05/01 03:31:27;;;;;;;15.75;10.02;;;5.70;99.90;;;;;;5047593;28;20037;-77
2021/05/01 03:33:52;;;;;;;16.73;11.02;;;5.60;99.90;;;;;;5030974;28;20040;-77
2021/05/01 03:36:18;;;;;;;20.45;11.55;;;5.50;99.90;;;;;;5048517;28;20029;-77
2021/05/01 03:38:43;;;;;;;19.00;11.55;;;5.50;99.90;;;;;;5048430;28;20029;-77
2021/05/01 03:41:09;;;;;;;18.75;12.45;;;5.50;99.90;;;;;;5030989;28;20172;-77
2021/05/01 03:43:35;;;;;;;20.45;12.30;;;5.40;99.90;;;;;;5038123;28;20024;-77
2021/05/01 03:46:01;;;;;;;19.63;12.85;;;5.40;99.90;;;;;;5068367;28;20385;-77
2021/05/01 03:48:27;;;;;;;19.08;11.98;;;5.40;99.90;;;;;;5068327;28;20045;-77
2021/05/01 03:50:53;;;;;;;21.60;12.55;;;5.30;99.90;;;;;;5068405;28;20024;-77
2021/05/01 03:53:19;;;;;;;20.50;12.77;;;5.30;99.90;;;;;;5068272;28;20025;-77
2021/05/01 03:55:44;;;;;;;18.50;12.13;;;5.20;99.90;;;;;;5068237;28;20035;-77
2021/05/01 03:58:10;;;;;;;15.20;9.90;;;5.20;99.90;;;;;;5066934;28;20033;-77
2021/05/01 04:00:36;;;;;;;20.88;11.05;;;5.20;99.90;;;;;;5068277;28;20461;-77
2021/05/01 04:03:01;;;;;;;19.23;12.77;;;5.20;99.90;;;;;;5068150;28;20037;-77
2021/05/01 04:05:27;;;;;;;18.60;11.98;;;5.10;99.90;;;;;;5033668;28;20040;-77
2021/05/01 04:07:53;;;;;;;21.40;12.70;;;5.00;99.90;;;;;;5067856;28;20470;-77
2021/05/01 04:10:19;;;;;;;28.27;17.10;;;5.00;99.90;;;;;;5067436;28;20024;-77
2021/05/01 04:12:45;;;;;;;28.13;18.33;;;5.00;99.90;;;;;;5067924;28;20021;-77
2021/05/01 04:15:11;;;;;;;24.38;16.73;;;5.00;99.90;;;;;;5068189;28;20057;-77
2021/05/01 04:17:37;;;;;;;23.55;16.27;;;5.00;99.90;;;;;;5049961;28;20028;-77
2021/05/01 04:20:04;;;;;;;32.42;19.10;;;4.90;99.90;;;;;;5067912;28;20025;-78
2021/05/01 04:22:30;;;;;;;25.75;16.27;;;4.90;99.90;;;;;;5067026;28;20120;-77
2021/05/01 04:24:55;;;;;;;27.08;16.40;;;4.90;99.90;;;;;;5049495;28;20029;-77
2021/05/01 04:27:21;;;;;;;24.10;16.92;;;4.90;99.90;;;;;;5066974;28;20052;-77
2021/05/01 04:29:47;;;;;;;21.83;15.98;;;4.90;99.90;;;;;;5067098;28;20474;-77
2021/05/01 04:32:13;;;;;;;22.33;15.50;;;4.90;99.90;;;;;;5049291;28;20033;-76
2021/05/01 04:34:39;;;;;;;21.90;14.45;;;4.90;99.90;;;;;;5049042;28;20021;-77
2021/05/01 04:37:04;;;;;;;18.65;12.55;;;4.90;99.90;;;;;;5048825;28;20530;-77
2021/05/01 04:39:30;;;;;;;23.35;14.80;;;4.80;99.90;;;;;;5066862;28;20029;-77
2021/05/01 04:41:56;;;;;;;21.02;12.90;;;4.80;99.90;;;;;;5066945;28;20028;-77
2021/05/01 04:44:22;;;;;;;17.10;12.85;;;4.80;99.90;;;;;;5049071;28;20029;-77
2021/05/01 04:46:52;;;;;;;19.42;12.27;;;4.80;99.90;;;;;;5048909;28;20051;-77
2021/05/01 04:49:18;;;;;;;16.52;11.80;;;4.90;99.90;;;;;;5065485;28;20112;-77
2021/05/01 04:51:44;;;;;;;22.65;16.50;;;4.80;99.90;;;;;;5048957;28;20115;-77
2021/05/01 04:54:10;;;;;;;21.02;15.68;;;4.90;99.90;;;;;;5066567;28;20354;-77
2021/05/01 04:56:36;;;;;;;23.00;13.93;;;4.90;99.90;;;;;;5032120;28;20051;-77
2021/05/01 04:59:03;;;;;;;23.13;16.45;;;4.90;99.90;;;;;;5065110;28;20033;-77
2021/05/01 05:01:28;;;;;;;20.25;15.38;;;4.90;99.90;;;;;;5066685;28;20055;-77
2021/05/01 05:03:54;;;;;;;26.65;18.13;;;4.90;99.90;;;;;;5048579;28;20033;-77
2021/05/01 05:06:20;;;;;;;29.60;19.70;;;4.90;99.90;;;;;;5048135;28;20037;-77
2021/05/01 05:08:45;;;;;;;27.08;17.23;;;5.00;99.90;;;;;;5048273;28;20040;-77
2021/05/01 05:11:11;;;;;;;23.40;16.65;;;4.90;99.90;;;;;;5048258;28;20096;-77
2021/05/01 05:13:37;;;;;;;19.85;14.20;;;5.00;99.90;;;;;;5048184;28;20175;-76
2021/05/01 05:16:03;;;;;;;24.15;14.90;;;5.00;99.90;;;;;;5031596;28;20033;-77
2021/05/01 05:18:28;;;;;;;28.20;17.45;;;5.00;99.90;;;;;;5048088;28;20036;-77
2021/05/01 05:20:54;;;;;;;21.10;15.27;;;5.10;99.90;;;;;;5030688;28;20021;-76
2021/05/01 05:23:20;;;;;;;24.88;15.35;;;5.10;99.90;;;;;;5048200;28;20032;-77
2021/05/01 05:25:45;;;;;;;24.42;16.85;;;5.10;99.90;;;;;;5065536;28;20056;-77
2021/05/01 05:28:11;;;;;;;25.67;18.35;;;5.20;99.90;;;;;;5065889;28;20108;-77
2021/05/01 05:30:37;;;;;;;24.20;16.83;;;5.20;99.90;;;;;;5047738;28;20092;-77
2021/05/01 05:33:03;;;;;;;29.20;17.42;;;5.20;99.90;;;;;;5048063;28;20043;-76
2021/05/01 05:35:29;;;;;;;28.15;16.38;;;5.30;99.90;;;;;;5047598;28;20116;-77
2021/05/01 05:37:55;;;;;;;29.15;18.10;;;5.40;99.90;;;;;;5065648;28;20036;-77
2021/05/01 05:40:20;;;;;;;26.33;16.40;;;5.50;99.90;;;;;;5047510;28;20072;-77
2021/05/01 05:42:49;;;;;;;22.17;13.73;;;5.60;99.90;;;;;;5065607;28;20082;-77
2021/05/01 05:45:22;;;;;;;26.75;15.80;;;5.70;99.90;;;;;;5065650;28;20027;-77
2021/05/01 05:47:48;;;;;;;26.40;17.13;;;5.70;99.90;;;;;;5047464;28;20052;-77
2021/05/01 05:50:15;;;;;;;31.85;19.95;;;5.80;99.90;;;;;;5064185;28;20029;-76
2021/05/01 05:52:40;;;;;;;35.20;20.20;;;5.70;99.90;;;;;;5065413;28;20060;-77
2021/05/01 05:55:06;;;;;;;28.23;18.70;;;5.80;99.90;;;;;;5065252;28;20028;-77
2021/05/01 05:57:33;;;;;;;26.73;16.95;;;5.80;99.90;;;;;;5063979;28;20056;-77
2021/05/01 05:59:58;;;;;;;23.70;15.70;;;5.80;99.90;;;;;;5065198;28;20033;-77
2021/05/01 06:02:26;;;;;;;24.92;16.50;;;5.80;99.90;;;;;;5047377;28;20069;-77
2021/05/01 06:05:11;;;;;;;27.63;17.40;;;6.00;99.90;;;;;;5064002;28;20040;-77
2021/05/01 06:07:46;;;;;;;28.50;18.65;;;6.10;99.90;;;;;;5047155;28;20247;-77
2021/05/01 06:10:13;;;;;;;25.70;17.98;;;6.10;99.90;;;;;;5047053;28;20109;-77
2021/05/01 06:12:41;;;;;;;28.27;17.63;;;6.20;99.90;;;;;;5063743;28;20036;-77
2021/05/01 06:15:13;;;;;;;27.10;15.07;;;6.30;99.90;;;;;;5030619;28;20041;-77
2021/05/01 06:17:41;;;;;;;25.30;17.33;;;6.50;99.90;;;;;;5047179;28;20047;-77
2021/05/01 06:20:09;;;;;;;28.02;16.15;;;6.60;99.90;;;;;;5046980;28;20036;-77
2021/05/01 06:22:35;;;;;;;24.85;16.35;;;6.70;99.90;;;;;;5030597;28;20434;-77
2021/05/01 06:25:02;;;;;;;23.75;16.35;;;6.60;99.90;;;;;;5047172;28;20036;-77
2021/05/01 06:27:28;;;;;;;27.60;17.70;;;6.70;99.90;;;;;;5046623;28;20044;-77
2021/05/01 06:29:54;;;;;;;30.55;19.00;;;6.90;99.90;;;;;;5047126;28;20035;-77
2021/05/01 06:32:21;;;;;;;26.42;17.55;;;6.90;99.90;;;;;;5030074;28;20288;-77
2021/05/01 06:34:57;;;;;;;25.77;16.15;;;7.10;99.90;;;;;;5063461;28;20037;-77
2021/05/01 06:37:25;;;;;;;26.20;17.02;;;7.30;99.90;;;;;;5046738;28;20036;-77
2021/05/01 06:39:53;;;;;;;26.73;17.85;;;7.20;99.90;;;;;;5064591;28;20495;-77
2021/05/01 06:42:28;;;;;;;27.92;18.15;;;7.30;99.90;;;;;;5046628;28;20396;-77
2021/05/01 06:45:06;;;;;;;27.13;19.17;;;7.40;99.90;;;;;;5043289;28;20046;-77
2021/05/01 06:47:32;;;;;;;25.17;16.75;;;7.30;99.90;;;;;;5043539;28;20051;-77
2021/05/01 06:50:11;;;;;;;27.83;17.98;;;7.30;99.90;;;;;;5026780;28;20086;-77
2021/05/01 06:52:45;;;;;;;26.83;17.67;;;7.60;99.90;;;;;;5043550;28;20026;-77
2021/05/01 06:55:13;;;;;;;32.20;19.10;;;7.60;99.90;;;;;;5043455;28;20052;-78
2021/05/01 06:57:44;;;;;;;24.05;17.58;;;7.80;99.90;;;;;;5010505;28;20044;-78
2021/05/01 07:00:10;;;;;;;26.42;19.15;;;8.00;99.90;;;;;;5026782;28;20040;-78
2021/05/01 07:02:40;;;;;;;23.67;15.10;;;8.30;99.90;;;;;;5044469;28;20121;-78
2021/05/01 07:05:25;;;;;;;25.60;18.48;;;8.20;99.90;;;;;;5044815;28;20037;-78
2021/05/01 07:07:51;;;;;;;25.33;17.42;;;8.10;99.90;;;;;;5026691;28;20382;-78
2021/05/01 07:10:18;;;;;;;28.23;16.20;;;8.10;99.90;;;;;;5026827;28;20040;-78
2021/05/01 07:12:44;;;;;;;21.70;15.57;;;8.00;99.90;;;;;;5049389;28;20018;-78
2021/05/01 07:15:18;;;;;;;27.95;18.00;;;8.10;99.90;;;;;;5028609;28;20061;-78
2021/05/01 07:17:48;;;;;;;25.95;18.33;;;8.30;99.90;;;;;;5045875;28;20036;-79
2021/05/01 07:20:14;;;;;;;25.17;16.63;;;8.50;99.90;;;;;;5011081;28;20033;-78
2021/05/01 07:22:41;;;;;;;26.77;18.13;;;8.50;99.90;;;;;;5044321;28;20030;-78
2021/05/01 07:25:09;;;;;;;31.35;17.45;;;8.70;99.90;;;;;;5046135;28;20081;-78
2021/05/01 07:27:41;;;;;;;23.15;14.60;;;8.70;99.90;;;;;;5064035;28;20041;-78
2021/05/01 07:30:11;;;;;;;24.52;15.65;;;8.80;99.90;;;;;;5046561;28;20473;-78
2021/05/01 07:32:40;;;;;;;17.80;15.03;;;8.80;99.90;;;;;;5046216;28;20033;-79
2021/05/01 07:35:07;;;;;;;24.17;13.37;;;9.10;99.90;;;;;;5026585;28;20408;-78
2021/05/01 07:37:37;;;;;;;21.52;15.13;;;9.60;99.90;;;;;;5025809;28;20272;-79
2021/05/01 07:40:05;;;;;;;18.27;13.73;;;9.00;99.90;;;;;;5026460;28;20030;-78
2021/05/01 07:42:37;;;;;;;21.73;14.35;;;8.70;99.90;;;;;;5026446;28;20405;-78
2021/05/01 07:45:04;;;;;;;18.88;14.02;;;8.90;99.90;;;;;;5048135;28;20029;-79
2021/05/01 07:47:32;;;;;;;21.50;12.82;;;9.20;99.90;;;;;;5067306;28;20040;-78
2021/05/01 07:49:59;;;;;;;16.08;11.18;;;9.10;99.90;;;;;;5049670;28;20032;-78
2021/05/01 07:52:29;;;;;;;15.38;10.77;;;8.90;99.90;;;;;;5050079;28;20033;-78
2021/05/01 07:54:54;;;;;;;;;;;9.30;99.90;;;;;;5032759;28;20029;-78
2021/05/01 07:57:20;;;;;;;13.45;8.90;;;9.30;99.90;;;;;;5049751;28;20000;-78
2021/05/01 07:59:46;;;;;;;14.73;8.20;;;8.70;99.90;;;;;;5050243;28;20028;-78
2021/05/01 08:02:11;;;;;;;11.15;7.85;;;8.60;99.90;;;;;;5066137;28;20090;-78
2021/05/01 08:04:37;;;;;;;11.90;8.20;;;9.10;99.90;;;;;;5039415;28;20056;-78
2021/05/01 08:07:02;;;;;;;14.50;7.05;;;9.60;99.90;;;;;;5032269;28;20028;-78
2021/05/01 08:09:28;;;;;;;14.63;7.65;;;10.10;99.90;;;;;;5055770;28;20029;-78
2021/05/01 08:11:54;;;;;;;18.73;9.32;;;9.50;99.90;;;;;;5061145;28;20381;-79
2021/05/01 08:14:20;;;;;;;13.30;7.88;;;9.20;99.90;;;;;;5046128;28;20057;-78
2021/05/01 08:16:45;;;;;;;13.02;7.35;;;9.20;99.90;;;;;;5046145;28;20384;-78
2021/05/01 08:19:11;;;;;;;13.25;6.88;;;9.90;99.90;;;;;;5045265;28;20036;-78
2021/05/01 08:21:43;;;;;;;8.40;5.88;;;10.10;99.90;;;;;;5046009;28;20033;-77
2021/05/01 08:24:09;;;;;;;10.68;6.90;;;10.60;99.90;;;;;;5045767;28;20029;-78
2021/05/01 08:26:35;;;;;;;11.13;6.63;;;10.20;99.90;;;;;;5062312;28;20040;-79
2021/05/01 08:29:01;;;;;;;13.63;8.95;;;9.90;99.90;;;;;;5047299;28;20029;-78
2021/05/01 08:31:27;;;;;;;10.65;8.02;;;9.20;99.90;;;;;;5044737;28;20097;-78
2021/05/01 08:33:53;;;;;;;11.07;6.88;;;9.30;99.90;;;;;;5027116;28;20095;-78
2021/05/01 08:36:19;;;;;;;12.20;6.38;;;10.00;99.90;;;;;;5045478;28;20029;-79
2021/05/01 08:38:45;;;;;;;15.38;8.68;;;10.20;99.90;;;;;;5045603;28;20030;-79
2021/05/01 08:41:11;;;;;;;12.50;7.97;;;10.30;99.90;;;;;;5045517;28;20044;-78
2021/05/01 08:43:37;;;;;;;10.27;5.65;;;10.40;99.90;;;;;;5043644;28;20025;-78
2021/05/01 08:46:12;;;;;;;13.25;6.53;;;10.70;99.90;;;;;;5046787;28;20057;-78
2021/05/01 08:48:41;;;;;;;9.43;5.68;;;10.70;99.90;;;;;;5046826;28;20040;-78
2021/05/01 08:51:07;;;;;;;8.43;5.95;;;10.40;99.90;;;;;;5045976;28;20113;-78
2021/05/01 08:53:33;;;;;;;12.95;6.60;;;10.90;99.90;;;;;;5045466;28;20031;-78
2021/05/01 08:55:59;;;;;;;9.23;5.38;;;11.00;99.90;;;;;;5045996;28;20067;-78
2021/05/01 08:58:25;;;;;;;9.15;5.93;;;11.20;99.90;;;;;;5044728;28;20088;-78
2021/05/01 09:00:50;;;;;;;9.27;5.78;;;11.60;99.90;;;;;;5046634;28;20037;-78
2021/05/01 09:03:19;;;;;;;7.55;5.00;;;11.30;99.90;;;;;;5046596;28;20032;-78
2021/05/01 09:06:06;;;;;;;9.02;5.25;;;11.90;99.90;;;;;;5046415;28;20044;-78
2021/05/01 09:08:32;;;;;;;4.93;3.70;;;11.20;99.90;;;;;;4968261;28;20047;-78
2021/05/01 09:11:04;;;;;;;6.63;4.70;;;11.60;99.90;;;;;;4952944;28;20035;-78
2021/05/01 09:13:29;;;;;;;6.63;4.10;;;11.10;99.90;;;;;;4984920;28;20054;-78
2021/05/01 09:16:08;;;;;;;5.65;3.70;;;11.90;99.90;;;;;;4984772;28;20037;-78
2021/05/01 09:18:50;;;;;;;8.05;5.13;;;12.20;99.90;;;;;;4984883;28;20094;-78
2021/05/01 09:21:22;;;;;;;9.45;5.35;;;11.20;99.90;;;;;;4984782;28;20030;-78
2021/05/01 09:23:48;;;;;;;7.70;5.10;;;10.80;99.90;;;;;;4984821;28;20031;-77
2021/05/01 09:26:14;;;;;;;5.28;3.63;;;11.00;99.90;;;;;;4984586;28;20043;-78
2021/05/01 09:28:43;;;;;;;9.13;4.85;;;11.50;99.90;;;;;;4984680;28;20050;-78
2021/05/01 09:31:11;;;;;;;7.10;4.38;;;11.70;99.90;;;;;;4968282;28;20443;-78
2021/05/01 09:33:51;;;;;;;6.15;3.65;;;11.80;99.90;;;;;;4984376;28;20087;-78
2021/05/01 09:36:19;;;;;;;4.95;2.78;;;11.60;99.90;;;;;;4984522;28;20038;-78
2021/05/01 09:38:55;;;;;;;5.15;2.30;;;11.20;99.90;;;;;;4984618;28;20078;-78
2021/05/01 09:41:23;;;;;;;5.90;2.08;;;10.80;99.90;;;;;;4984546;28;20039;-78
2021/05/01 09:43:56;;;;;;;7.78;2.58;;;11.30;99.90;;;;;;4984322;28;20075;-78
2021/05/01 09:46:22;;;;;;;6.70;3.90;;;11.30;99.90;;;;;;4997690;28;20097;-78
2021/05/01 09:49:20;;;;;;;5.43;2.70;;;11.60;99.90;;;;;;5006120;28;20406;-78
2021/05/01 09:51:51;;;;;;;4.70;2.53;;;11.60;99.90;;;;;;4988543;28;20108;-78
2021/05/01 09:54:19;;;;;;;4.30;2.17;;;11.80;99.90;;;;;;5006198;28;20033;-78
2021/05/01 09:56:46;;;;;;;5.57;2.55;;;12.40;99.90;;;;;;5004689;28;20038;-78
2021/05/01 09:59:12;;;;;;;4.43;2.05;;;12.20;99.90;;;;;;5005937;28;20030;-78
2021/05/01 10:01:38;;;;;;;7.35;2.42;;;12.90;99.90;;;;;;4972210;28;20057;-77
2021/05/01 10:04:17;;;;;;;5.30;2.42;;;12.70;99.90;;;;;;4988303;28;20433;-78
2021/05/01 10:06:51;;;;;;;5.47;2.15;;;13.10;99.90;;;;;;4987571;28;20030;-78
2021/05/01 10:09:25;;;;;;;3.20;1.67;;;13.10;99.90;;;;;;5017376;28;20426;-79
2021/05/01 10:11:54;;;;;;;7.25;1.65;;;13.50;99.90;;;;;;5011869;28;20034;-79
2021/05/01 10:14:37;;;;;;;5.35;1.27;;;13.10;99.90;;;;;;5036855;28;20053;-78
2021/05/01 10:17:05;;;;;;;4.15;1.67;;;12.80;99.90;;;;;;5046969;28;20037;-78
2021/05/01 10:19:50;;;;;;;2.65;0.98;;;12.30;99.90;;;;;;5064960;28;20154;-78
2021/05/01 10:22:23;;;;;;;4.38;1.30;;;12.30;99.90;;;;;;5064587;28;20037;-78
2021/05/01 10:24:50;;;;;;;3.08;1.20;;;11.80;99.90;;;;;;5065011;28;20177;-79
2021/05/01 10:27:18;;;;;;;5.43;1.70;;;12.20;99.90;;;;;;5047258;28;20147;-79
2021/05/01 10:29:45;;;;;;;4.90;1.05;;;11.20;99.90;;;;;;5065030;28;20523;-78
2021/05/01 10:32:29;;;;;;;4.78;1.88;;;11.30;99.90;;;;;;5047178;28;20043;-79
2021/05/01 10:35:00;;;;;;;4.90;2.17;;;11.30;99.90;;;;;;5042379;28;20033;-78
2021/05/01 10:37:30;;;;;;;5.75;1.60;;;11.70;99.90;;;;;;5064349;28;20029;-78
2021/05/01 10:39:57;;;;;;;2.95;1.45;;;12.30;99.90;;;;;;5065126;28;20082;-79
2021/05/01 10:42:24;;;;;;;5.90;1.85;;;12.60;99.90;;;;;;5043686;28;20029;-79
2021/05/01 10:44:58;;;;;;;3.50;0.90;;;13.60;99.90;;;;;;5061407;28;20111;-81
2021/05/01 10:47:23;;;;;;;3.88;1.60;;;14.00;99.90;;;;;;5064789;28;20068;-78
2021/05/01 10:49:51;;;;;;;2.95;0.82;;;13.60;99.90;;;;;;5064809;28;20037;-82
2021/05/01 10:52:19;;;;;;;3.63;0.80;;;13.30;99.90;;;;;;5064190;28;20033;-80
2021/05/01 10:55:01;;;;;;;4.85;1.70;;;13.20;99.90;;;;;;5047170;28;20164;-80
2021/05/01 10:57:29;;;;;;;5.85;1.35;;;12.90;99.90;;;;;;5064599;28;20056;-78
2021/05/01 11:00:00;;;;;;;4.15;1.65;;;12.30;99.90;;;;;;5046267;28;20033;-80
2021/05/01 11:03:00;;;;;;;4.32;1.30;;;11.90;99.90;;;;;;5064742;28;20021;-79
2021/05/01 11:05:31;;;;;;;2.65;1.20;;;11.70;99.90;;;;;;5064608;28;20100;-80
2021/05/01 11:08:21;;;;;;;4.55;1.38;;;12.10;99.90;;;;;;5064372;28;20044;-78
2021/05/01 11:10:50;;;;;;;4.28;1.88;;;11.70;99.90;;;;;;5064436;28;20088;-77
2021/05/01 11:13:25;;;;;;;4.72;1.10;;;11.20;99.90;;;;;;5046377;28;20519;-78
2021/05/01 11:15:56;;;;;;;3.28;1.23;;;11.10;99.90;;;;;;5064418;28;20057;-78
2021/05/01 11:18:24;;;;;;;2.72;1.40;;;11.30;99.90;;;;;;5048066;28;20086;-77
2021/05/01 11:20:55;;;;;;;5.30;1.67;;;11.10;99.90;;;;;;5050370;28;20028;-78
2021/05/01 11:23:25;;;;;;;4.95;1.77;;;11.00;99.90;;;;;;5068290;28;20055;-78
2021/05/01 11:25:54;;;;;;;4.50;1.20;;;10.90;99.90;;;;;;5068291;28;20089;-78
2021/05/01 11:28:23;;;;;;;3.63;1.50;;;10.80;99.90;;;;;;5063403;28;20052;-78
2021/05/01 11:30:51;;;;;;;3.97;1.80;;;10.90;99.90;;;;;;5066201;28;20052;-78
2021/05/01 11:33:21;;;;;;;5.70;1.80;;;10.90;99.90;;;;;;5049800;28;20047;-78
2021/05/01 11:35:48;;;;;;;3.83;1.67;;;10.80;99.90;;;;;;5047821;28;20359;-77
2021/05/01 11:38:24;;;;;;;3.50;1.20;;;11.00;99.90;;;;;;5033291;28;20033;-77
2021/05/01 11:40:54;;;;;;;6.70;1.50;;;11.10;99.90;;;;;;5067963;28;20025;-78
2021/05/01 11:43:25;;;;;;;3.67;1.42;;;11.10;99.90;;;;;;5068188;28;20029;-78
2021/05/01 11:46:01;;;;;;;3.03;1.40;;;11.10;99.90;;;;;;5050155;28;20048;-77
2021/05/01 11:48:34;;;;;;;3.30;1.27;;;11.50;99.90;;;;;;5067699;28;20037;-77
2021/05/01 11:51:03;;;;;;;5.82;1.65;;;11.30;99.90;;;;;;5050129;28;20071;-77
2021/05/01 11:53:46;;;;;;;4.72;1.88;;;11.40;99.90;;;;;;5067882;28;20043;-78
2021/05/01 11:56:46;;;;;;;4.32;2.15;;;11.70;99.90;;;;;;5066218;28;20033;-77
2021/05/01 11:59:14;;;;;;;5.40;2.42;;;12.10;99.90;;;;;;5049851;28;20063;-77
2021/05/01 12:02:03;;;;;;;3.83;2.10;;;12.60;99.90;;;;;;5066255;28;20029;-78
2021/05/01 12:04:58;;;;;;;3.83;2.13;;;12.40;99.90;;;;;;5049627;28;20029;-77
2021/05/01 12:07:36;;;;;;;5.45;1.90;;;12.20;99.90;;;;;;5046592;23;20495;-77
2021/05/01 12:10:22;;;;;;;2.55;1.40;;;12.70;99.90;;;;;;5070167;28;20276;-78
2021/05/01 12:12:51;;;;;;;3.15;2.10;;;12.80;99.90;;;;;;5070066;28;20035;-77
2021/05/01 12:15:17;;;;;;;4.10;2.60;;;12.30;99.90;;;;;;5069985;28;20080;-78
2021/05/01 12:17:54;;;;;;;3.30;2.17;;;11.90;99.90;;;;;;5069953;28;20155;-78
2021/05/01 12:20:23;;;;;;;2.47;1.33;;;11.90;99.90;;;;;;5070012;28;20039;-78
2021/05/01 12:22:49;;;;;;;5.37;3.10;;;12.50;99.90;;;;;;5053254;28;20389;-78
2021/05/01 12:25:29;;;;;;;3.40;1.48;;;12.00;99.90;;;;;;5053054;28;20297;-78
2021/05/01 12:27:59;;;;;;;5.72;1.80;;;12.30;99.90;;;;;;5053036;28;20075;-78
2021/05/01 12:30:38;;;;;;;2.65;1.73;;;12.00;99.90;;;;;;5052335;28;20024;-78
2021/05/01 12:33:23;;;;;;;4.55;1.70;;;12.00;99.90;;;;;;5069619;28;20074;-78
2021/05/01 12:35:51;;;;;;;5.50;1.50;;;12.30;99.90;;;;;;5049244;28;20036;-78
2021/05/01 12:38:19;;;;;;;2.80;1.65;;;12.10;99.90;;;;;;5067220;28;20036;-78
2021/05/01 12:40:45;;;;;;;4.75;2.00;;;12.20;99.90;;;;;;5066891;28;20108;-78
2021/05/01 12:43:31;;;;;;;4.30;1.85;;;11.90;99.90;;;;;;5053175;28;20543;-78
2021/05/01 12:45:58;;;;;;;2.75;1.45;;;11.50;99.90;;;;;;5069193;28;20033;-78
2021/05/01 12:48:53;;;;;;;2.88;1.52;;;11.60;99.90;;;;;;5087028;28;20056;-77